createdAt,value
2019-01-15T00:01:47.555Z,74.14
2019-01-15T00:04:17.806Z,74.54
2019-01-15T00:06:48.486Z,74.68
2019-01-15T00:09:19.173Z,74.61
2019-01-15T00:11:49.878Z,74.61
2019-01-15T00:14:20.388Z,74.45
2019-01-15T00:16:51.000Z,74.46
2019-01-15T00:19:21.677Z,74.68
2019-01-15T00:21:52.381Z,74.67
2019-01-15T00:24:23.014Z,74.52
2019-01-15T00:26:53.544Z,74.59
2019-01-15T00:29:25.713Z,74.43
2019-01-15T00:31:56.334Z,74.79
2019-01-15T00:34:26.967Z,74.76
2019-01-15T00:36:57.640Z,74.72
2019-01-15T00:39:28.232Z,74.62
2019-01-15T00:41:58.907Z,74.75
2019-01-15T00:44:29.717Z,74.65
2019-01-15T00:47:00.344Z,74.71
2019-01-15T00:49:30.617Z,74.89
2019-01-15T00:52:01.284Z,74.83
2019-01-15T00:54:33.152Z,74.61
2019-01-15T00:57:03.883Z,74.57
2019-01-15T00:59:36.052Z,74.52
2019-01-15T01:02:08.975Z,74.66
2019-01-15T01:04:39.169Z,74.66
2019-01-15T01:07:09.801Z,74.44
2019-01-15T01:09:41.031Z,74.24
2019-01-15T01:12:12.059Z,74.32
2019-01-15T01:14:42.700Z,74.38
2019-01-15T01:17:13.268Z,74.48
2019-01-15T01:19:43.606Z,74.61
2019-01-15T01:22:17.286Z,74.75
2019-01-15T01:24:47.907Z,74.34
2019-01-15T01:27:18.537Z,74.50
2019-01-15T01:29:51.599Z,74.51
2019-01-15T01:32:21.143Z,74.46
2019-01-15T01:34:51.670Z,74.24
2019-01-15T01:37:22.292Z,74.10
2019-01-15T01:39:52.932Z,74.00
2019-01-15T01:42:29.399Z,74.01
2019-01-15T01:44:55.460Z,73.65
2019-01-15T01:47:26.028Z,74.02
2019-01-15T01:49:56.380Z,74.06
2019-01-15T01:52:26.640Z,73.91
2019-01-15T01:54:57.255Z,74.03
2019-01-15T01:57:27.928Z,74.12
2019-01-15T01:59:58.503Z,74.09
2019-01-15T02:02:29.108Z,74.22
2019-01-15T02:04:59.736Z,74.18
2019-01-15T02:07:30.297Z,74.00
2019-01-15T02:10:01.028Z,74.02
2019-01-15T02:12:36.923Z,74.03
2019-01-15T02:15:08.421Z,74.06
2019-01-15T02:17:39.139Z,74.03
2019-01-15T02:20:11.658Z,73.87
2019-01-15T02:22:42.263Z,74.00
2019-01-15T02:25:12.894Z,73.83
2019-01-15T02:27:45.061Z,73.91
2019-01-15T02:30:20.274Z,73.80
2019-01-15T02:32:50.928Z,73.51
2019-01-15T02:35:21.540Z,73.43
2019-01-15T02:37:52.199Z,73.26
2019-01-15T02:40:22.821Z,73.32
2019-01-15T02:42:53.111Z,72.83
2019-01-15T02:45:23.671Z,72.89
2019-01-15T02:47:54.310Z,73.16
2019-01-15T02:50:24.947Z,73.32
2019-01-15T02:52:55.577Z,73.47
2019-01-15T02:55:26.102Z,73.51
2019-01-15T02:57:56.636Z,73.57
2019-01-15T03:00:29.034Z,73.34
2019-01-15T03:02:59.351Z,73.76
2019-01-15T03:05:29.956Z,73.80
2019-01-15T03:08:00.577Z,74.12
2019-01-15T03:10:31.118Z,74.14
2019-01-15T03:13:01.743Z,74.24
2019-01-15T03:15:32.277Z,74.51
2019-01-15T03:18:02.910Z,74.53
2019-01-15T03:20:33.438Z,74.79
2019-01-15T03:23:03.997Z,74.64
2019-01-15T03:25:34.604Z,74.79
2019-01-15T03:28:05.336Z,74.98
2019-01-15T03:30:35.870Z,75.24
2019-01-15T03:33:06.522Z,75.25
2019-01-15T03:35:37.134Z,75.29
2019-01-15T03:38:07.728Z,75.25
2019-01-15T03:40:38.312Z,75.51
2019-01-15T03:43:08.941Z,75.38
2019-01-15T03:45:39.574Z,75.80
2019-01-15T03:48:10.245Z,75.54
2019-01-15T03:50:42.836Z,75.57
2019-01-15T03:53:13.557Z,75.58
2019-01-15T03:55:44.250Z,75.29
2019-01-15T03:58:14.989Z,74.99
2019-01-15T04:00:45.617Z,75.00
2019-01-15T04:03:16.407Z,74.98
2019-01-15T04:05:46.977Z,74.98
2019-01-15T04:08:17.592Z,75.04
2019-01-15T04:10:48.111Z,75.24
2019-01-15T04:13:18.786Z,75.34
2019-01-15T04:15:49.390Z,75.58
2019-01-15T04:18:20.222Z,75.80
2019-01-15T04:20:51.119Z,76.15
2019-01-15T04:23:24.351Z,76.11
2019-01-15T04:25:54.994Z,76.40
2019-01-15T04:28:25.637Z,76.46
2019-01-15T04:30:56.176Z,76.73
2019-01-15T04:33:27.374Z,76.76
2019-01-15T04:35:58.108Z,76.57
2019-01-15T04:38:28.838Z,76.87
2019-01-15T04:40:59.755Z,76.91
2019-01-15T04:43:30.584Z,76.68
2019-01-15T04:46:01.235Z,76.86
2019-01-15T04:48:31.968Z,76.71
2019-01-15T04:51:02.581Z,77.12
2019-01-15T04:53:33.198Z,76.80
2019-01-15T04:56:03.808Z,76.75
2019-01-15T04:58:35.014Z,76.88
2019-01-15T05:01:05.712Z,76.88
2019-01-15T05:03:40.017Z,76.77
2019-01-15T05:06:10.649Z,76.71
2019-01-15T05:08:41.060Z,76.46
2019-01-15T05:11:11.691Z,76.64
2019-01-15T05:13:42.013Z,76.79
2019-01-15T05:16:12.609Z,76.59
2019-01-15T05:18:42.853Z,76.48
2019-01-15T05:21:13.521Z,76.50
2019-01-15T05:23:44.198Z,76.47
2019-01-15T05:26:14.967Z,76.44
2019-01-15T05:28:45.601Z,76.54
2019-01-15T05:31:16.232Z,76.41
2019-01-15T05:33:46.877Z,76.18
2019-01-15T05:36:18.646Z,76.17
2019-01-15T05:38:49.255Z,76.38
2019-01-15T05:41:19.574Z,75.88
2019-01-15T05:43:50.244Z,75.88
2019-01-15T05:46:20.513Z,75.73
2019-01-15T05:48:51.576Z,75.91
2019-01-15T05:51:23.853Z,75.85
2019-01-15T05:53:54.579Z,75.74
2019-01-15T05:56:25.012Z,75.48
2019-01-15T05:58:55.390Z,75.53
2019-01-15T06:01:26.050Z,75.12
2019-01-15T06:03:56.585Z,75.40
2019-01-15T06:06:27.260Z,75.03
2019-01-15T06:08:57.852Z,75.03
2019-01-15T06:11:28.366Z,74.98
2019-01-15T06:13:59.010Z,74.41
2019-01-15T06:16:29.647Z,74.61
2019-01-15T06:19:00.272Z,74.44
2019-01-15T06:21:30.799Z,74.59
2019-01-15T06:24:01.192Z,74.21
2019-01-15T06:26:33.283Z,73.99
2019-01-15T06:29:04.443Z,74.12
2019-01-15T06:31:35.099Z,73.82
2019-01-15T06:34:05.727Z,73.82
2019-01-15T06:36:36.447Z,73.53
2019-01-15T06:39:08.536Z,73.68
2019-01-15T06:41:39.141Z,73.59
2019-01-15T06:44:09.817Z,73.48
2019-01-15T06:46:40.631Z,73.56
2019-01-15T06:49:11.273Z,73.40
2019-01-15T06:51:41.876Z,73.34
2019-01-15T06:54:12.526Z,73.29
2019-01-15T06:56:44.311Z,73.50
2019-01-15T06:59:15.002Z,73.46
2019-01-15T07:01:45.635Z,73.26
2019-01-15T07:04:16.316Z,73.09
2019-01-15T07:06:46.999Z,73.29
2019-01-15T07:09:17.516Z,73.31
2019-01-15T07:11:47.793Z,72.83
2019-01-15T07:14:20.127Z,72.98
2019-01-15T07:16:50.850Z,73.02
2019-01-15T07:19:23.472Z,73.24
2019-01-15T07:21:54.090Z,73.19
2019-01-15T07:24:26.707Z,73.07
2019-01-15T07:26:57.272Z,72.92
2019-01-15T07:29:30.969Z,72.92
2019-01-15T07:32:01.854Z,73.09
2019-01-15T07:34:32.542Z,73.23
2019-01-15T07:37:03.177Z,73.25
2019-01-15T07:39:33.813Z,73.74
2019-01-15T07:42:07.420Z,73.37
2019-01-15T07:44:38.134Z,73.55
2019-01-15T07:47:08.807Z,73.37
2019-01-15T07:49:39.430Z,73.43
2019-01-15T07:52:10.152Z,73.56
2019-01-15T07:54:43.588Z,73.72
2019-01-15T07:57:14.241Z,73.83
2019-01-15T07:59:44.918Z,73.94
2019-01-15T08:02:16.576Z,73.82
2019-01-15T08:04:47.288Z,74.15
2019-01-15T08:07:19.183Z,74.46
2019-01-15T08:09:49.788Z,74.61
2019-01-15T08:12:20.423Z,74.84
2019-01-15T08:14:51.050Z,74.73
2019-01-15T08:17:21.609Z,74.86
2019-01-15T08:19:52.315Z,74.92
2019-01-15T08:22:22.946Z,75.44
2019-01-15T08:24:53.465Z,75.59
2019-01-15T08:27:25.227Z,75.63
2019-01-15T08:29:55.882Z,75.56
2019-01-15T08:32:26.504Z,75.49
2019-01-15T08:34:56.877Z,75.91
2019-01-15T08:37:27.555Z,75.76
2019-01-15T08:39:58.178Z,76.17
2019-01-15T08:42:28.739Z,76.17
2019-01-15T08:44:59.689Z,76.15
2019-01-15T08:47:33.086Z,75.75
2019-01-15T08:50:09.536Z,75.79
2019-01-15T08:52:43.559Z,75.69
2019-01-15T08:55:15.795Z,76.06
2019-01-15T08:57:46.323Z,76.34
2019-01-15T09:00:16.855Z,76.69
2019-01-15T09:02:47.398Z,76.98
2019-01-15T09:05:18.036Z,77.32
2019-01-15T09:07:48.415Z,77.27
2019-01-15T09:10:19.378Z,77.55
2019-01-15T09:12:49.916Z,77.93
2019-01-15T09:15:23.298Z,78.48
2019-01-15T09:17:53.941Z,79.15
2019-01-15T09:20:24.585Z,80.03
2019-01-15T09:22:55.622Z,80.61
2019-01-15T09:25:26.353Z,80.62
2019-01-15T09:27:59.221Z,81.08
2019-01-15T09:30:29.857Z,81.03
2019-01-15T09:33:00.421Z,80.83
2019-01-15T09:35:31.929Z,80.76
2019-01-15T09:38:03.343Z,80.44
2019-01-15T09:40:34.054Z,79.98
2019-01-15T09:43:04.572Z,80.01
2019-01-15T09:45:35.825Z,80.28
2019-01-15T09:48:08.800Z,80.43
2019-01-15T09:50:39.157Z,80.68
2019-01-15T09:53:13.046Z,80.91
2019-01-15T09:55:43.660Z,80.73
2019-01-15T09:58:13.883Z,81.28
2019-01-15T10:00:44.709Z,81.12
2019-01-15T10:03:15.455Z,81.51
2019-01-15T10:05:46.212Z,81.11
2019-01-15T10:08:16.822Z,81.62
2019-01-15T10:10:47.477Z,81.46
2019-01-15T10:13:18.143Z,81.93
2019-01-15T10:15:48.843Z,82.00
2019-01-15T10:18:19.502Z,82.45
2019-01-15T10:20:49.787Z,82.08
2019-01-15T10:23:20.936Z,81.94
2019-01-15T10:25:54.039Z,81.74
2019-01-15T10:28:24.778Z,81.71
2019-01-15T10:31:13.718Z,81.30
2019-01-15T10:33:47.523Z,81.67
2019-01-15T10:36:19.016Z,81.49
2019-01-15T10:38:49.913Z,81.33
2019-01-15T10:41:20.181Z,81.28
2019-01-15T10:43:50.704Z,80.63
2019-01-15T10:46:21.464Z,80.46
2019-01-15T10:48:51.726Z,80.32
2019-01-15T10:51:22.477Z,80.12
2019-01-15T10:53:53.100Z,79.81
2019-01-15T10:56:23.835Z,79.49
2019-01-15T10:58:54.570Z,79.40
2019-01-15T11:01:25.277Z,79.23
2019-01-15T11:03:55.838Z,79.01
2019-01-15T11:06:28.105Z,79.04
2019-01-15T11:08:58.735Z,78.89
2019-01-15T11:11:28.975Z,78.65
2019-01-15T11:13:59.569Z,78.83
2019-01-15T11:16:31.649Z,78.69
2019-01-15T11:19:02.276Z,78.44
2019-01-15T11:21:33.003Z,78.40
2019-01-15T11:24:05.248Z,78.19
2019-01-15T11:26:38.779Z,78.23
2019-01-15T11:29:09.494Z,78.31
2019-01-15T11:31:40.128Z,78.22
2019-01-15T11:34:14.022Z,78.31
2019-01-15T11:36:46.411Z,78.48
2019-01-15T11:39:16.945Z,79.41
2019-01-15T11:41:47.717Z,79.74
2019-01-15T11:44:20.885Z,79.79
2019-01-15T11:46:51.247Z,80.07
2019-01-15T11:49:21.827Z,80.12
2019-01-15T11:51:52.457Z,80.54
2019-01-15T11:54:24.743Z,80.88
2019-01-15T11:56:55.362Z,81.12
2019-01-15T11:59:26.203Z,81.30
2019-01-15T12:01:57.869Z,81.38
2019-01-15T12:04:32.900Z,81.81
2019-01-15T12:07:10.485Z,81.64
2019-01-15T12:09:42.947Z,81.60
2019-01-15T12:12:16.983Z,81.73
2019-01-15T12:14:55.181Z,81.90
2019-01-15T12:17:30.122Z,81.67
2019-01-15T12:20:11.090Z,81.62
2019-01-15T12:22:58.298Z,81.35
2019-01-15T12:25:35.877Z,81.25
2019-01-15T12:28:24.445Z,81.12
2019-01-15T12:31:13.213Z,81.31
2019-01-15T12:34:01.784Z,81.38
2019-01-15T12:36:40.371Z,82.09
2019-01-15T12:39:21.660Z,82.41
2019-01-15T12:41:59.696Z,83.35
2019-01-15T12:44:42.410Z,83.71
2019-01-15T12:47:16.416Z,84.05
2019-01-15T12:50:00.447Z,84.44
2019-01-15T12:52:41.613Z,84.56
2019-01-15T12:55:14.506Z,84.62
2019-01-15T12:57:46.387Z,85.00
2019-01-15T13:00:24.486Z,84.95
2019-01-15T13:03:07.455Z,85.10
2019-01-15T13:05:51.162Z,85.45
2019-01-15T13:08:23.426Z,85.45
2019-01-15T13:10:59.402Z,85.44
2019-01-15T13:13:31.632Z,85.57
2019-01-15T13:16:06.289Z,85.38
2019-01-15T13:18:50.851Z,85.25
2019-01-15T13:21:26.268Z,85.38
2019-01-15T13:24:14.917Z,85.61
2019-01-15T13:26:53.032Z,85.71
2019-01-15T13:29:27.890Z,85.75
2019-01-15T13:32:07.156Z,85.84
2019-01-15T13:34:48.378Z,86.00
2019-01-15T13:37:20.646Z,85.82
2019-01-15T13:39:52.916Z,85.91
2019-01-15T13:42:31.019Z,85.76
2019-01-15T13:45:18.754Z,85.85
2019-01-15T13:48:00.258Z,85.69
2019-01-15T13:50:35.391Z,85.51
2019-01-15T13:53:23.941Z,85.56
2019-01-15T13:55:56.198Z,85.33
2019-01-15T13:58:44.744Z,85.37
2019-01-15T14:01:28.710Z,85.54
2019-01-15T14:04:04.032Z,85.65
2019-01-15T14:06:53.676Z,85.72
2019-01-15T14:09:25.983Z,85.93
2019-01-15T14:12:00.915Z,86.08
2019-01-15T14:14:33.210Z,86.12
2019-01-15T14:17:11.307Z,86.19
2019-01-15T14:20:00.270Z,86.48
2019-01-15T14:22:38.356Z,86.79
2019-01-15T14:25:14.925Z,86.84
2019-01-15T14:27:47.188Z,87.04
2019-01-15T14:30:20.101Z,87.18
2019-01-15T14:32:55.895Z,87.14
2019-01-15T14:35:32.621Z,87.26
2019-01-15T14:38:17.191Z,87.39
2019-01-15T14:40:57.854Z,87.38
2019-01-15T14:43:46.395Z,87.40
2019-01-15T14:46:28.920Z,87.60
2019-01-15T14:49:06.903Z,87.55
2019-01-15T14:51:39.179Z,87.71
2019-01-15T14:54:17.177Z,87.68
2019-01-15T14:56:54.065Z,87.59
2019-01-15T14:59:38.301Z,87.59
2019-01-15T15:02:25.831Z,87.49
2019-01-15T15:04:58.101Z,87.51
2019-01-15T15:07:32.713Z,87.37
2019-01-15T15:10:14.128Z,87.30
2019-01-15T15:12:49.728Z,87.42
2019-01-15T15:15:24.914Z,87.41
2019-01-15T15:18:12.216Z,87.34
2019-01-15T15:20:51.103Z,87.19
2019-01-15T15:23:47.539Z,87.07
2019-01-15T15:26:42.630Z,86.95
2019-01-15T15:29:17.880Z,86.86
2019-01-15T15:32:05.793Z,86.82
2019-01-15T15:34:44.996Z,86.91
2019-01-15T15:37:26.411Z,87.07
2019-01-15T15:40:10.695Z,87.00
2019-01-15T15:42:42.907Z,87.05
2019-01-15T15:45:33.309Z,86.97
2019-01-15T15:48:05.569Z,87.32
2019-01-15T15:50:40.429Z,87.36
2019-01-15T15:53:29.171Z,87.28
2019-01-15T15:56:16.700Z,87.11
2019-01-15T15:58:52.484Z,87.03
2019-01-15T16:01:31.026Z,86.82
2019-01-15T16:04:19.645Z,86.79
2019-01-15T16:06:51.988Z,86.83
2019-01-15T16:09:28.260Z,87.07
2019-01-15T16:12:09.549Z,87.11
2019-01-15T16:14:57.571Z,87.12
2019-01-15T16:17:34.652Z,86.89
2019-01-15T16:20:15.794Z,86.89
2019-01-15T16:22:48.042Z,87.10
2019-01-15T16:25:20.334Z,87.11
2019-01-15T16:27:52.646Z,86.83
2019-01-15T16:30:31.064Z,86.85
2019-01-15T16:33:38.794Z,86.81
2019-01-15T16:36:47.216Z,86.85
2019-01-15T16:39:40.438Z,86.73
2019-01-15T16:42:11.956Z,86.77
2019-01-15T16:44:51.753Z,86.72
2019-01-15T16:47:40.278Z,86.62
2019-01-15T16:50:12.553Z,86.56
2019-01-15T16:52:49.222Z,86.57
2019-01-15T16:55:28.811Z,86.43
2019-01-15T16:58:24.114Z,86.48
2019-01-15T17:01:05.898Z,86.36
2019-01-15T17:03:56.841Z,86.31
2019-01-15T17:06:31.851Z,86.20
2019-01-15T17:09:12.552Z,86.23
2019-01-15T17:11:53.229Z,86.68
2019-01-15T17:14:37.253Z,86.95
2019-01-15T17:17:09.582Z,87.23
2019-01-15T17:19:41.845Z,86.96
2019-01-15T17:22:17.214Z,86.93
2019-01-15T17:24:58.454Z,86.85
2019-01-15T17:27:39.220Z,86.92
2019-01-15T17:30:30.650Z,86.72
2019-01-15T17:33:06.020Z,86.55
2019-01-15T17:35:41.721Z,86.49
2019-01-15T17:38:30.535Z,86.18
2019-01-15T17:41:17.846Z,86.03
2019-01-15T17:43:50.505Z,85.72
2019-01-15T17:46:28.779Z,85.40
2019-01-15T17:49:01.201Z,85.47
2019-01-15T17:51:33.470Z,85.18
2019-01-15T17:54:08.837Z,85.28
2019-01-15T17:56:40.829Z,85.09
2019-01-15T17:59:29.853Z,85.17
2019-01-15T18:02:14.090Z,85.26
2019-01-15T18:05:05.875Z,85.58
2019-01-15T18:07:37.965Z,85.67
2019-01-15T18:10:15.533Z,86.05
2019-01-15T18:13:03.830Z,86.52
2019-01-15T18:15:36.174Z,86.59
2019-01-15T18:18:28.129Z,86.88
2019-01-15T18:21:09.604Z,86.71
2019-01-15T18:23:58.468Z,87.13
2019-01-15T18:26:39.653Z,87.07
2019-01-15T18:29:27.737Z,87.42
2019-01-15T18:32:18.521Z,87.20
2019-01-15T18:34:48.994Z,87.10
2019-01-15T18:37:39.108Z,86.98
2019-01-15T18:40:15.769Z,86.88
2019-01-15T18:42:50.688Z,86.41
2019-01-15T18:45:25.745Z,86.54
2019-01-15T18:48:07.163Z,86.32
2019-01-15T18:50:51.434Z,86.41
2019-01-15T18:53:27.062Z,86.16
2019-01-15T18:56:08.391Z,85.84
2019-01-15T18:58:43.478Z,85.89
2019-01-15T19:01:15.858Z,85.79
2019-01-15T19:03:48.282Z,85.99
2019-01-15T19:06:25.202Z,85.57
2019-01-15T19:09:00.540Z,85.51
2019-01-15T19:11:41.817Z,85.67
2019-01-15T19:14:26.350Z,85.85
2019-01-15T19:17:10.844Z,85.74
2019-01-15T19:19:52.443Z,85.54
2019-01-15T19:22:25.275Z,85.77
2019-01-15T19:25:09.120Z,85.68
2019-01-15T19:27:44.220Z,85.76
2019-01-15T19:30:34.365Z,86.07
2019-01-15T19:33:09.382Z,86.16
2019-01-15T19:35:58.182Z,86.41
2019-01-15T19:38:30.570Z,86.87
2019-01-15T19:41:04.688Z,87.03
2019-01-15T19:43:46.294Z,87.00
2019-01-15T19:46:18.706Z,87.25
2019-01-15T19:48:56.693Z,87.10
2019-01-15T19:51:45.503Z,87.06
2019-01-15T19:54:17.905Z,87.21
2019-01-15T19:57:02.736Z,87.19
2019-01-15T19:59:52.788Z,87.02
2019-01-15T20:02:25.213Z,87.06
2019-01-15T20:05:14.921Z,87.19
2019-01-15T20:07:46.515Z,87.15
2019-01-15T20:10:36.743Z,87.06
2019-01-15T20:13:27.533Z,87.06
2019-01-15T20:16:16.398Z,86.91
2019-01-15T20:18:48.869Z,87.01
2019-01-15T20:21:36.052Z,87.29
2019-01-15T20:24:26.380Z,87.49
2019-01-15T20:27:01.340Z,87.78
2019-01-15T20:29:42.692Z,88.01
2019-01-15T20:32:18.042Z,88.18
2019-01-15T20:35:07.035Z,88.42
2019-01-15T20:37:48.627Z,88.74
2019-01-15T20:40:25.408Z,88.68
2019-01-15T20:43:02.863Z,88.77
2019-01-15T20:45:41.547Z,88.70
2019-01-15T20:48:13.959Z,88.83
2019-01-15T20:51:03.492Z,88.83
2019-01-15T20:53:36.221Z,88.91
2019-01-15T20:56:09.266Z,88.93
2019-01-15T20:58:56.954Z,88.75
2019-01-15T21:01:38.092Z,88.83
2019-01-15T21:04:16.048Z,88.92
2019-01-15T21:07:06.635Z,88.77
2019-01-15T21:09:44.709Z,88.80
2019-01-15T21:12:17.254Z,88.81
2019-01-15T21:15:06.520Z,88.46
2019-01-15T21:17:55.182Z,88.66
2019-01-15T21:20:27.567Z,89.08
2019-01-15T21:23:00.166Z,88.92
2019-01-15T21:25:41.817Z,89.05
2019-01-15T21:28:30.489Z,88.86
2019-01-15T21:31:18.201Z,89.16
2019-01-15T21:34:08.513Z,88.94
2019-01-15T21:36:44.125Z,89.14
2019-01-15T21:39:22.399Z,89.14
2019-01-15T21:41:55.016Z,89.14
2019-01-15T21:44:27.030Z,89.03
2019-01-15T21:46:59.373Z,88.98
2019-01-15T21:49:31.870Z,89.32
2019-01-15T21:52:13.029Z,89.11
2019-01-15T21:55:01.784Z,88.63
2019-01-15T21:57:50.540Z,88.78
2019-01-15T22:00:25.626Z,88.84
2019-01-15T22:03:16.888Z,89.15
2019-01-15T22:05:58.069Z,88.96
2019-01-15T22:08:30.348Z,89.00
2019-01-15T22:11:05.833Z,89.05
2019-01-15T22:13:54.641Z,89.25
2019-01-15T22:16:27.009Z,89.30
2019-01-15T22:19:07.895Z,89.15
2019-01-15T22:21:52.138Z,89.27
2019-01-15T22:24:27.192Z,89.05
2019-01-15T22:27:02.563Z,88.88
2019-01-15T22:29:52.804Z,88.93
2019-01-15T22:32:43.395Z,88.88
2019-01-15T22:35:15.683Z,88.91
2019-01-15T22:37:54.118Z,88.96
2019-01-15T22:40:38.347Z,88.89
2019-01-15T22:43:13.052Z,88.48
2019-01-15T22:46:00.430Z,88.53
2019-01-15T22:48:40.226Z,88.43
2019-01-15T22:51:30.085Z,88.34
2019-01-15T22:54:02.396Z,88.21
2019-01-15T22:56:52.992Z,88.25
2019-01-15T22:59:40.535Z,88.01
2019-01-15T23:02:16.763Z,88.07
2019-01-15T23:04:53.899Z,88.29
2019-01-15T23:07:33.644Z,87.90
2019-01-15T23:10:08.739Z,88.03
2019-01-15T23:12:43.571Z,87.72
2019-01-15T23:15:18.527Z,87.69
2019-01-15T23:17:50.434Z,87.56
2019-01-15T23:20:34.308Z,87.56
2019-01-15T23:23:15.691Z,87.55
2019-01-15T23:26:02.802Z,87.09
2019-01-15T23:28:46.969Z,87.25
2019-01-15T23:31:21.919Z,86.90
2019-01-15T23:34:10.538Z,87.12
2019-01-15T23:36:42.810Z,87.05
2019-01-15T23:39:20.727Z,86.77
2019-01-15T23:41:55.560Z,86.99
2019-01-15T23:44:36.872Z,86.61
2019-01-15T23:47:12.447Z,86.55
2019-01-15T23:49:54.111Z,86.72
2019-01-15T23:52:31.736Z,86.62
2019-01-15T23:55:04.135Z,86.26
2019-01-15T23:57:36.503Z,86.45
